Time;durP1;ratioP1;P1;durP2;ratioP2;P2;SDS_P1;SDS_P2;PMS_P1;PMS_P2;Temp;Humidity;BMP_temperature;BMP_pressure;BME280_temperature;BME280_humidity;BME280_pressure;Samples;Min_cycle;Max_cycle;Signal;HPM_P1;HPM_P2
2021/04/12 00:00:42;;;;;;;4.73;2.20;;;4.10;99.90;;;;;;5084047;28;20607;-78
2021/04/12 00:03:14;;;;;;;2.90;1.67;;;4.10;99.90;;;;;;5071660;28;20263;-80
2021/04/12 00:05:47;;;;;;;2.80;1.57;;;4.20;99.90;;;;;;5086772;28;20245;-78
2021/04/12 00:08:19;;;;;;;5.87;1.93;;;4.30;99.90;;;;;;5068506;28;20350;-80
2021/04/12 00:11:09;;;;;;;4.63;2.20;;;4.10;99.90;;;;;;5064931;28;20227;-79
2021/04/12 00:14:00;;;;;;;3.50;1.60;;;4.20;99.90;;;;;;5090997;28;20206;-79
2021/04/12 00:16:42;;;;;;;7.70;1.80;;;4.20;99.90;;;;;;5087141;28;20195;-79
2021/04/12 00:19:20;;;;;;;3.23;1.70;;;4.30;99.90;;;;;;5084923;28;20213;-80
2021/04/12 00:21:54;;;;;;;2.87;1.70;;;4.30;99.90;;;;;;5075433;28;20201;-79
2021/04/12 00:24:56;;;;;;;2.90;1.97;;;4.10;99.90;;;;;;5069571;28;20206;-79
2021/04/12 00:27:47;;;;;;;1.73;1.40;;;4.00;99.90;;;;;;5066423;28;20210;-80
2021/04/12 00:30:49;;;;;;;2.27;1.30;;;3.90;99.90;;;;;;5092549;28;20237;-78
2021/04/12 00:33:23;;;;;;;5.03;1.60;;;4.10;99.90;;;;;;5062752;28;20198;-78
2021/04/12 00:36:00;;;;;;;1.80;1.50;;;4.20;99.90;;;;;;5070438;28;21522;-80
2021/04/12 00:38:40;;;;;;;2.17;1.67;;;4.10;99.90;;;;;;5088850;28;20582;-78
2021/04/12 00:41:34;;;;;;;7.33;1.83;;;3.60;99.90;;;;;;5071776;28;20218;-79
2021/04/12 00:44:19;;;;;;;3.17;1.70;;;3.40;99.90;;;;;;5069715;28;20198;-79
2021/04/12 00:47:14;;;;;;;3.67;1.57;;;3.60;99.90;;;;;;5072651;28;20249;-78
2021/04/12 00:50:15;;;;;;;8.87;2.17;;;3.70;99.90;;;;;;5069121;28;20210;-79
2021/04/12 00:52:56;;;;;;;5.50;1.70;;;3.70;99.90;;;;;;5072411;28;20198;-80
2021/04/12 00:55:45;;;;;;;1.83;1.50;;;3.60;99.90;;;;;;5072089;28;20212;-79
2021/04/12 00:58:48;;;;;;;3.13;1.70;;;3.40;99.90;;;;;;5059583;28;20561;-78
2021/04/12 01:01:44;;;;;;;3.83;1.73;;;3.30;99.90;;;;;;5069348;28;20259;-79
2021/04/12 01:04:43;;;;;;;3.53;1.80;;;3.50;99.90;;;;;;5064751;28;20202;-79
2021/04/12 01:07:13;;;;;;;3.63;1.57;;;3.40;99.90;;;;;;5018052;28;20209;-78
2021/04/12 01:10:17;;;;;;;3.30;1.80;;;3.50;99.90;;;;;;5075234;28;20218;-78
2021/04/12 01:13:08;;;;;;;5.57;2.17;;;3.50;99.90;;;;;;5076150;28;20273;-78
2021/04/12 01:15:56;;;;;;;2.73;1.80;;;3.30;99.90;;;;;;5099095;28;20275;-79
2021/04/12 01:18:32;;;;;;;5.20;2.03;;;3.40;99.90;;;;;;5076843;28;20193;-79
2021/04/12 01:21:35;;;;;;;4.73;1.77;;;3.30;99.90;;;;;;5063123;28;20195;-79
2021/04/12 01:24:16;;;;;;;3.77;1.47;;;3.40;99.90;;;;;;5069640;28;20261;-79
2021/04/12 01:27:05;;;;;;;4.13;2.60;;;3.20;99.90;;;;;;5093126;28;20263;-78
2021/04/12 01:30:09;;;;;;;3.83;1.67;;;3.20;99.90;;;;;;5074363;28;20741;-78
2021/04/12 01:33:09;;;;;;;4.13;1.97;;;3.00;99.90;;;;;;5075427;28;20206;-78
2021/04/12 01:35:57;;;;;;;3.90;2.07;;;3.20;99.90;;;;;;5071856;28;20261;-79
2021/04/12 01:38:31;;;;;;;3.57;2.13;;;3.30;99.90;;;;;;5074347;28;20194;-79
2021/04/12 01:41:25;;;;;;;5.20;2.10;;;3.30;99.90;;;;;;5072553;28;20233;-80
2021/04/12 01:44:28;;;;;;;3.07;2.10;;;3.50;99.90;;;;;;5092140;28;20276;-79
2021/04/12 01:47:00;;;;;;;3.83;2.13;;;3.60;99.90;;;;;;5086465;28;20209;-79
2021/04/12 01:49:52;;;;;;;3.23;1.97;;;3.60;99.90;;;;;;5074397;28;20302;-79
2021/04/12 01:52:25;;;;;;;2.77;2.20;;;3.60;99.90;;;;;;5093952;28;20240;-79
2021/04/12 01:54:59;;;;;;;2.87;1.73;;;3.50;99.90;;;;;;5094285;28;20197;-79
2021/04/12 01:57:51;;;;;;;3.17;1.80;;;3.40;99.90;;;;;;5068691;28;20206;-79
2021/04/12 02:00:51;;;;;;;3.17;1.80;;;3.40;99.90;;;;;;5073853;28;20634;-79
2021/04/12 02:03:39;;;;;;;4.60;2.00;;;3.20;99.90;;;;;;5090895;28;20276;-79
2021/04/12 02:06:24;;;;;;;6.93;2.37;;;3.30;99.90;;;;;;5067264;28;20615;-80
2021/04/12 02:09:03;;;;;;;4.30;1.97;;;3.40;99.90;;;;;;5089879;28;20259;-79
2021/04/12 02:11:33;;;;;;;4.60;2.40;;;3.50;99.90;;;;;;5096192;28;20198;-79
2021/04/12 02:14:35;;;;;;;7.43;2.27;;;3.10;99.90;;;;;;5073275;28;20270;-79
2021/04/12 02:17:12;;;;;;;4.03;2.17;;;3.10;99.90;;;;;;5073486;28;20202;-79
2021/04/12 02:20:23;;;;;;;2.43;2.13;;;3.20;99.90;;;;;;5071374;28;20285;-79
2021/04/12 02:22:58;;;;;;;3.90;2.00;;;3.30;99.90;;;;;;5072881;28;20206;-79
2021/04/12 02:25:38;;;;;;;1.63;1.50;;;3.30;99.90;;;;;;5075050;28;20199;-80
2021/04/12 02:28:10;;;;;;;3.20;2.20;;;3.20;99.90;;;;;;5089504;28;20209;-80
2021/04/12 02:30:52;;;;;;;7.80;2.17;;;3.20;99.90;;;;;;5093620;28;20624;-79
2021/04/12 02:33:30;;;;;;;2.40;2.10;;;3.30;99.90;;;;;;5111383;28;20766;-79
2021/04/12 02:36:13;;;;;;;3.07;2.10;;;3.30;99.90;;;;;;5110612;28;20212;-79
2021/04/12 02:39:22;;;;;;;3.10;1.87;;;3.40;99.90;;;;;;5108948;28;20607;-79
2021/04/12 02:42:06;;;;;;;3.43;1.73;;;3.40;99.90;;;;;;5087310;28;20703;-79
2021/04/12 02:44:53;;;;;;;2.27;1.77;;;3.30;99.90;;;;;;5098794;28;20198;-79
2021/04/12 02:47:32;;;;;;;2.47;1.73;;;3.10;99.90;;;;;;5099074;28;20654;-79
2021/04/12 02:50:25;;;;;;;2.53;2.13;;;3.00;99.90;;;;;;5091020;28;20255;-80
2021/04/12 02:52:54;;;;;;;2.93;2.00;;;2.90;99.90;;;;;;5083734;28;20205;-79
2021/04/12 02:56:08;;;;;;;5.20;2.20;;;3.10;99.90;;;;;;5110444;28;20649;-79
2021/04/12 02:59:17;;;;;;;3.80;2.13;;;2.70;99.90;;;;;;5046813;28;20211;-79
2021/04/12 03:02:10;;;;;;;4.77;2.13;;;2.80;99.90;;;;;;5033241;28;20210;-79
2021/04/12 03:05:00;;;;;;;3.93;2.50;;;3.10;99.90;;;;;;5047716;28;20239;-79
2021/04/12 03:07:47;;;;;;;5.50;2.17;;;3.10;99.90;;;;;;5031440;28;20223;-79
2021/04/12 03:10:27;;;;;;;5.10;3.00;;;2.80;99.90;;;;;;5046036;28;20619;-79
2021/04/12 03:13:22;;;;;;;2.30;2.10;;;2.90;99.90;;;;;;5022878;28;20209;-79
2021/04/12 03:15:57;;;;;;;3.47;2.00;;;2.90;99.90;;;;;;5046585;28;20257;-79
2021/04/12 03:18:48;;;;;;;7.70;2.30;;;3.00;99.90;;;;;;5033287;28;20233;-80
2021/04/12 03:21:51;;;;;;;3.67;2.77;;;3.20;99.90;;;;;;5048314;28;20200;-80
2021/04/12 03:24:29;;;;;;;4.50;2.60;;;2.90;99.90;;;;;;5049997;28;20300;-80
2021/04/12 03:27:14;;;;;;;2.17;1.93;;;3.10;99.90;;;;;;5032980;28;20213;-79
2021/04/12 03:30:14;;;;;;;3.63;1.90;;;3.40;99.90;;;;;;5046214;28;20239;-80
2021/04/12 03:32:43;;;;;;;2.17;1.70;;;3.40;99.90;;;;;;5082551;28;20622;-80
2021/04/12 03:35:46;;;;;;;3.90;1.87;;;3.50;99.90;;;;;;5104965;28;20218;-80
2021/04/12 03:38:23;;;;;;;4.20;1.70;;;3.50;99.90;;;;;;5111387;28;20226;-80
2021/04/12 03:41:11;;;;;;;2.93;1.73;;;3.60;99.90;;;;;;5083722;28;20685;-80
2021/04/12 03:43:55;;;;;;;2.40;1.90;;;3.70;99.90;;;;;;5099860;28;20201;-79
2021/04/12 03:46:50;;;;;;;5.67;2.03;;;3.80;99.90;;;;;;5085601;28;20242;-80
2021/04/12 03:49:45;;;;;;;4.13;1.70;;;3.80;99.90;;;;;;5085296;28;20229;-79
2021/04/12 03:52:41;;;;;;;4.27;2.23;;;3.60;99.90;;;;;;5085975;28;20651;-81
2021/04/12 03:55:28;;;;;;;2.97;1.97;;;3.00;99.90;;;;;;5094892;28;20263;-79
2021/04/12 03:58:13;;;;;;;3.87;1.83;;;3.30;99.90;;;;;;5105106;28;20657;-80
2021/04/12 04:00:56;;;;;;;4.80;2.20;;;3.10;99.90;;;;;;5106131;28;20198;-79
2021/04/12 04:03:37;;;;;;;2.23;1.70;;;2.80;99.90;;;;;;5094107;28;20713;-79
2021/04/12 04:06:19;;;;;;;3.47;1.80;;;2.70;99.90;;;;;;5082372;28;20675;-79
2021/04/12 04:09:03;;;;;;;3.07;1.93;;;2.50;99.90;;;;;;5085598;28;20210;-79
2021/04/12 04:11:51;;;;;;;1.67;1.50;;;2.50;99.90;;;;;;5085093;28;20255;-80
2021/04/12 04:14:39;;;;;;;5.00;1.77;;;2.40;99.90;;;;;;5093330;28;20197;-79
2021/04/12 04:17:37;;;;;;;2.57;1.70;;;2.40;99.90;;;;;;5091442;28;20251;-80
2021/04/12 04:20:23;;;;;;;3.07;1.97;;;2.30;99.90;;;;;;5092142;28;20276;-79
2021/04/12 04:23:03;;;;;;;1.80;1.70;;;2.30;99.90;;;;;;5089044;28;20598;-79
2021/04/12 04:26:01;;;;;;;2.67;1.90;;;2.20;99.90;;;;;;5090971;28;20188;-80
2021/04/12 04:29:03;;;;;;;3.47;2.00;;;2.50;99.90;;;;;;5092630;28;20596;-78
2021/04/12 04:31:59;;;;;;;2.20;1.70;;;2.60;99.90;;;;;;5034974;28;20673;-79
2021/04/12 04:34:57;;;;;;;3.07;1.80;;;2.70;99.90;;;;;;5072679;28;20202;-78
2021/04/12 04:37:51;;;;;;;2.87;1.47;;;2.60;99.90;;;;;;5092603;28;20194;-80
2021/04/12 04:40:27;;;;;;;2.17;1.60;;;2.30;99.90;;;;;;5107613;28;20227;-81
2021/04/12 04:43:02;;;;;;;3.60;1.70;;;2.30;99.90;;;;;;5092815;28;20244;-80
2021/04/12 04:45:56;;;;;;;3.53;2.20;;;2.40;99.90;;;;;;5114961;27;20197;-81
2021/04/12 04:48:38;;;;;;;3.63;1.70;;;2.40;99.90;;;;;;5100576;28;20207;-80
2021/04/12 04:51:20;;;;;;;5.47;2.23;;;2.40;99.90;;;;;;5090035;28;20237;-81
2021/04/12 04:54:08;;;;;;;3.97;2.10;;;2.30;99.90;;;;;;5096434;28;20542;-81
2021/04/12 04:56:56;;;;;;;1.90;1.63;;;2.60;99.90;;;;;;5094102;28;20647;-81
2021/04/12 04:59:58;;;;;;;1.77;1.60;;;2.80;99.90;;;;;;5117923;27;20293;-80
2021/04/12 05:03:09;;;;;;;3.27;2.10;;;3.00;99.90;;;;;;5117604;28;20200;-82
2021/04/12 05:06:03;;;;;;;2.57;2.03;;;2.90;99.90;;;;;;5100493;28;20198;-81
2021/04/12 05:09:00;;;;;;;2.53;2.00;;;2.90;99.90;;;;;;5100549;28;20188;-81
2021/04/12 05:12:19;;;;;;;2.33;1.90;;;2.90;99.90;;;;;;5114307;28;20222;-81
2021/04/12 05:15:19;;;;;;;5.90;2.00;;;2.70;99.90;;;;;;5095799;28;20686;-81
2021/04/12 05:17:52;;;;;;;4.00;1.70;;;2.80;99.90;;;;;;5094267;28;20365;-82
2021/04/12 05:20:39;;;;;;;1.87;1.67;;;2.60;99.90;;;;;;5115920;27;20249;-81
2021/04/12 05:23:38;;;;;;;2.43;1.80;;;2.60;99.90;;;;;;5099075;28;20258;-81
2021/04/12 05:26:22;;;;;;;2.60;2.03;;;2.40;99.90;;;;;;5102233;28;20867;-81
2021/04/12 05:29:15;;;;;;;3.13;2.07;;;2.20;99.90;;;;;;5112390;28;21043;-81
2021/04/12 05:32:06;;;;;;;1.97;1.80;;;2.30;99.90;;;;;;5095585;28;20203;-82
2021/04/12 05:34:58;;;;;;;3.03;2.07;;;2.30;99.90;;;;;;5114661;27;20259;-81
2021/04/12 05:38:01;;;;;;;3.70;2.57;;;2.20;99.90;;;;;;5097738;28;20205;-81
2021/04/12 05:40:41;;;;;;;3.40;2.43;;;2.30;99.90;;;;;;5086537;27;20224;-80
2021/04/12 05:43:46;;;;;;;3.17;2.43;;;2.30;99.90;;;;;;5093848;28;20203;-80
2021/04/12 05:46:43;;;;;;;5.10;3.87;;;2.40;99.90;;;;;;5117266;27;20291;-82
2021/04/12 05:49:29;;;;;;;3.30;2.63;;;2.40;99.90;;;;;;5105291;28;20209;-81
2021/04/12 05:52:26;;;;;;;3.07;2.17;;;2.60;99.90;;;;;;5108786;28;20211;-81
2021/04/12 05:55:20;;;;;;;2.20;1.90;;;3.00;99.90;;;;;;5090942;28;20197;-81
2021/04/12 05:58:11;;;;;;;3.27;2.50;;;2.90;99.90;;;;;;5106946;28;20262;-80
2021/04/12 06:00:46;;;;;;;3.27;2.27;;;2.80;99.90;;;;;;5112451;27;20201;-80
2021/04/12 06:03:44;;;;;;;3.50;2.70;;;3.10;99.90;;;;;;5104667;28;20729;-81
2021/04/12 06:06:29;;;;;;;2.90;2.33;;;3.20;99.90;;;;;;5096516;28;20200;-81
2021/04/12 06:09:25;;;;;;;3.13;2.40;;;3.50;99.90;;;;;;5093091;27;20205;-81
2021/04/12 06:11:51;;;;;;;2.70;1.97;;;3.50;99.90;;;;;;5106051;27;20841;-79
2021/04/12 06:14:45;;;;;;;3.17;2.23;;;3.70;99.90;;;;;;5081799;28;20716;-80
2021/04/12 06:17:56;;;;;;;4.67;2.47;;;3.70;99.90;;;;;;5087112;28;20197;-80
2021/04/12 06:20:48;;;;;;;3.60;2.23;;;3.90;99.90;;;;;;5083697;28;20200;-80
2021/04/12 06:23:41;;;;;;;3.03;1.60;;;3.90;99.90;;;;;;5084561;28;20233;-81
2021/04/12 06:26:38;;;;;;;2.40;1.63;;;4.20;99.90;;;;;;5090990;28;20198;-80
2021/04/12 06:29:26;;;;;;;3.30;1.80;;;4.30;99.90;;;;;;5086529;28;20205;-78
2021/04/12 06:31:59;;;;;;;2.90;1.80;;;4.30;99.90;;;;;;5089858;28;21466;-79
2021/04/12 06:34:37;;;;;;;3.50;1.80;;;4.90;99.90;;;;;;5087001;28;20232;-81
2021/04/12 06:37:22;;;;;;;2.10;1.60;;;5.10;99.90;;;;;;5090054;28;20576;-80
2021/04/12 06:40:28;;;;;;;2.10;1.13;;;5.60;99.90;;;;;;5095689;28;20234;-80
2021/04/12 06:42:58;;;;;;;5.27;2.07;;;5.20;1.00;;;;;;5090493;28;20190;-80
2021/04/12 06:46:04;;;;;;;1.87;1.53;;;5.50;1.00;;;;;;5104012;27;20217;-75
2021/04/12 06:48:59;;;;;;;5.47;2.40;;;5.40;1.00;;;;;;5105693;27;20582;-78
2021/04/12 06:52:19;;;;;;;3.87;1.70;;;5.70;1.00;;;;;;5103901;28;20222;-76
2021/04/12 06:55:20;;;;;;;2.57;1.43;;;5.90;1.00;;;;;;5101748;28;20263;-77
2021/04/12 06:58:24;;;;;;;4.00;1.47;;;6.40;1.00;;;;;;5102403;28;20291;-76
2021/04/12 07:01:28;;;;;;;5.73;1.77;;;5.90;1.00;;;;;;5094507;28;20675;-74
2021/04/12 07:04:32;;;;;;;2.03;1.40;;;5.40;1.00;;;;;;5107786;27;20213;-75
2021/04/12 07:07:16;;;;;;;1.97;1.60;;;5.80;1.00;;;;;;5098255;28;20205;-77
2021/04/12 07:10:20;;;;;;;2.00;1.40;;;6.00;1.00;;;;;;5104400;27;20641;-75
2021/04/12 07:13:05;;;;;;;3.07;1.53;;;6.30;99.90;;;;;;5101646;27;20201;-75
2021/04/12 07:15:50;;;;;;;3.80;1.70;;;6.70;99.90;;;;;;5099907;27;20192;-77
2021/04/12 07:18:39;;;;;;;2.77;1.30;;;7.40;1.00;;;;;;5106332;28;20198;-76
2021/04/12 07:21:32;;;;;;;2.23;0.67;;;7.60;1.00;;;;;;5087496;28;20243;-75
2021/04/12 07:24:38;;;;;;;0.70;0.57;;;7.30;1.00;;;;;;5100795;28;20188;-76
2021/04/12 07:27:39;;;;;;;2.37;0.60;;;6.40;99.90;;;;;;5103902;28;20216;-76
2021/04/12 07:30:39;;;;;;;2.17;1.03;;;6.10;99.90;;;;;;5091630;28;20708;-75
2021/04/12 07:33:38;;;;;;;2.90;1.00;;;6.00;99.90;;;;;;5080641;28;20206;-76
2021/04/12 07:36:10;;;;;;;1.23;1.13;;;5.80;1.00;;;;;;5082410;28;20202;-75
2021/04/12 07:39:01;;;;;;;3.03;1.30;;;5.70;99.90;;;;;;5091365;28;20191;-77
2021/04/12 07:41:40;;;;;;;3.10;1.23;;;6.20;1.00;;;;;;5070857;28;20662;-76
2021/04/12 07:44:37;;;;;;;2.10;1.20;;;6.30;1.00;;;;;;5087632;28;20196;-76
2021/04/12 07:47:37;;;;;;;2.90;1.00;;;6.30;1.00;;;;;;5090218;28;20241;-75
2021/04/12 07:50:22;;;;;;;3.00;0.80;;;6.90;1.00;;;;;;5077563;28;20617;-76
2021/04/12 07:53:28;;;;;;;2.00;1.17;;;7.30;99.90;;;;;;5063064;28;20286;-76
2021/04/12 07:56:05;;;;;;;4.67;1.33;;;7.10;1.00;;;;;;5077442;28;20204;-75
2021/04/12 07:58:53;;;;;;;1.93;1.40;;;6.60;1.00;;;;;;5086290;28;20208;-74
2021/04/12 08:01:41;;;;;;;3.53;1.40;;;6.30;1.00;;;;;;5078586;28;20252;-76
2021/04/12 08:04:44;;;;;;;4.50;1.50;;;6.10;1.00;;;;;;5092681;28;20194;-75
2021/04/12 08:07:42;;;;;;;3.27;2.00;;;6.10;1.00;;;;;;5069952;28;20270;-75
2021/04/12 08:10:42;;;;;;;3.60;1.50;;;5.70;1.00;;;;;;5065946;28;20216;-76
2021/04/12 08:13:30;;;;;;;2.10;1.63;;;5.90;1.00;;;;;;5084063;28;20200;-75
2021/04/12 08:16:33;;;;;;;3.37;1.87;;;5.90;1.00;;;;;;5093327;28;20270;-75
2021/04/12 08:19:27;;;;;;;4.30;1.80;;;5.90;1.00;;;;;;5086203;28;20193;-76
2021/04/12 08:22:33;;;;;;;3.87;1.90;;;5.80;1.00;;;;;;5076503;28;20201;-75
2021/04/12 08:25:18;;;;;;;2.87;1.53;;;5.00;1.00;;;;;;5076192;28;20202;-76
2021/04/12 08:28:31;;;;;;;0.80;0.80;;;4.90;33.60;;;;;;5065639;28;20214;-76
2021/04/12 08:31:09;;;;;;;1.77;0.83;;;4.50;99.90;;;;;;5069605;28;20289;-76
2021/04/12 08:34:12;;;;;;;3.53;0.83;;;4.30;99.90;;;;;;5069234;28;20262;-75
2021/04/12 08:37:09;;;;;;;2.20;0.60;;;4.40;99.90;;;;;;5084938;28;20208;-75
2021/04/12 08:39:57;;;;;;;1.70;0.93;;;4.60;99.90;;;;;;5087611;28;20236;-76
2021/04/12 08:42:42;;;;;;;1.10;0.80;;;3.70;99.90;;;;;;5067972;28;20237;-76
2021/04/12 08:45:33;;;;;;;2.30;1.73;;;4.20;99.90;;;;;;5085035;28;20195;-74
2021/04/12 08:48:18;;;;;;;1.50;0.87;;;3.70;99.90;;;;;;5088904;28;20202;-75
2021/04/12 08:51:03;;;;;;;0.70;0.50;;;4.10;99.90;;;;;;5084361;28;20261;-75
2021/04/12 08:54:06;;;;;;;3.43;0.70;;;3.90;99.90;;;;;;5077263;28;20195;-74
2021/04/12 08:56:54;;;;;;;1.70;0.70;;;3.70;99.90;;;;;;5088054;28;20240;-75
2021/04/12 08:59:39;;;;;;;3.63;1.20;;;4.20;99.90;;;;;;5086430;28;20245;-74
2021/04/12 09:02:36;;;;;;;1.03;0.63;;;4.70;99.90;;;;;;5086585;28;20324;-75
2021/04/12 09:05:39;;;;;;;1.33;0.93;;;4.70;98.90;;;;;;5085973;28;20558;-75
2021/04/12 09:08:18;;;;;;;1.60;1.00;;;5.20;99.90;;;;;;5041088;28;20586;-74
2021/04/12 09:11:21;;;;;;;3.50;1.10;;;5.10;29.40;;;;;;5086393;28;20217;-76
2021/04/12 09:13:53;;;;;;;3.43;1.30;;;5.60;94.60;;;;;;5085067;28;20225;-75
2021/04/12 09:17:04;;;;;;;1.13;1.03;;;6.10;1.00;;;;;;5066560;28;20197;-77
2021/04/12 09:19:45;;;;;;;1.00;0.90;;;6.30;1.00;;;;;;5041750;28;20241;-76
2021/04/12 09:22:36;;;;;;;0.90;0.83;;;5.70;1.00;;;;;;5069296;28;20198;-77
2021/04/12 09:25:23;;;;;;;2.20;0.93;;;5.80;1.00;;;;;;5072756;28;20186;-76
2021/04/12 09:28:20;;;;;;;1.53;1.20;;;5.90;1.00;;;;;;5091571;28;20198;-75
2021/04/12 09:31:31;;;;;;;2.50;1.10;;;6.30;1.00;;;;;;5071298;28;20762;-73
2021/04/12 09:34:35;;;;;;;2.27;1.43;;;7.40;1.00;;;;;;5086978;28;20302;-76
2021/04/12 09:37:43;;;;;;;2.33;1.07;;;8.10;1.00;;;;;;5088848;28;20205;-75
2021/04/12 09:40:37;;;;;;;1.70;1.20;;;7.50;99.90;;;;;;5089150;28;20777;-75
2021/04/12 09:43:44;;;;;;;1.47;1.13;;;7.20;1.00;;;;;;5064578;28;20265;-75
2021/04/12 09:46:16;;;;;;;1.60;1.20;;;7.00;99.90;;;;;;5068160;28;21557;-76
2021/04/12 09:49:14;;;;;;;1.60;0.97;;;6.90;99.90;;;;;;5086899;28;20191;-75
2021/04/12 09:51:59;;;;;;;1.53;0.60;;;6.40;1.00;;;;;;5069223;28;20564;-75
2021/04/12 09:55:25;;;;;;;0.50;0.40;;;5.90;1.00;;;;;;5091440;28;20616;-75
2021/04/12 09:58:14;;;;;;;0.77;0.60;;;5.80;1.00;;;;;;5086766;28;20686;-75
2021/04/12 10:01:19;;;;;;;1.67;0.80;;;5.90;99.90;;;;;;5080880;28;20256;-75
2021/04/12 10:04:04;;;;;;;2.83;0.80;;;5.80;99.90;;;;;;5087159;28;20230;-75
2021/04/12 10:06:54;;;;;;;1.53;0.90;;;6.10;99.90;;;;;;5060576;28;20638;-75
2021/04/12 10:09:29;;;;;;;1.10;1.00;;;6.40;99.90;;;;;;5066043;28;20289;-75
2021/04/12 10:12:24;;;;;;;1.07;1.00;;;6.40;1.00;;;;;;5084377;28;20292;-74
2021/04/12 10:15:19;;;;;;;0.83;0.80;;;6.60;1.00;;;;;;5082044;28;20628;-74
2021/04/12 10:17:51;;;;;;;1.40;1.13;;;6.40;99.90;;;;;;5067933;28;20197;-76
2021/04/12 10:20:28;;;;;;;2.13;1.20;;;6.20;1.00;;;;;;5070650;28;20498;-74
2021/04/12 10:23:00;;;;;;;1.10;1.00;;;6.30;99.90;;;;;;5064399;28;20247;-74
2021/04/12 10:25:34;;;;;;;3.33;1.20;;;6.60;99.90;;;;;;5080629;28;20219;-73
2021/04/12 10:28:23;;;;;;;2.23;1.10;;;6.60;1.00;;;;;;5064461;28;20214;-75
2021/04/12 10:30:55;;;;;;;2.07;1.10;;;6.70;1.00;;;;;;5094563;28;20260;-74
2021/04/12 10:33:36;;;;;;;0.83;0.70;;;6.70;1.00;;;;;;5085020;28;20217;-75
2021/04/12 10:36:08;;;;;;;1.43;0.80;;;6.70;1.00;;;;;;5086752;27;20790;-74
2021/04/12 10:38:39;;;;;;;0.80;0.70;;;6.90;1.00;;;;;;5105072;27;20230;-76
2021/04/12 10:41:32;;;;;;;3.60;1.20;;;7.20;99.90;;;;;;5084331;27;20278;-73
2021/04/12 10:44:15;;;;;;;2.07;1.10;;;7.60;1.00;;;;;;5085102;28;20974;-74
2021/04/12 10:46:46;;;;;;;2.43;0.87;;;7.40;1.00;;;;;;5103186;28;20229;-75
2021/04/12 10:49:21;;;;;;;0.90;0.90;;;7.70;99.90;;;;;;5098547;27;20335;-75
2021/04/12 10:52:19;;;;;;;4.63;0.90;;;8.10;1.00;;;;;;5084389;28;20227;-75
2021/04/12 10:54:55;;;;;;;1.07;0.93;;;8.20;99.90;;;;;;5100342;28;20658;-74
2021/04/12 10:57:27;;;;;;;1.47;0.80;;;7.90;99.90;;;;;;5109111;27;20285;-74
2021/04/12 11:00:05;;;;;;;0.80;0.80;;;7.80;1.00;;;;;;5108098;27;20199;-74
2021/04/12 11:03:09;;;;;;;1.30;0.90;;;8.00;1.00;;;;;;5108612;28;20198;-75
2021/04/12 11:05:37;;;;;;;1.10;1.00;;;8.20;1.00;;;;;;5106639;27;20210;-75
2021/04/12 11:08:26;;;;;;;2.33;1.43;;;8.80;99.90;;;;;;5109541;27;20251;-74
2021/04/12 11:11:09;;;;;;;1.50;1.27;;;9.40;1.00;;;;;;5104599;27;20643;-74
2021/04/12 11:13:47;;;;;;;3.13;1.90;;;8.50;99.90;;;;;;5088739;28;20588;-75
2021/04/12 11:16:14;;;;;;;2.20;2.00;;;9.20;1.00;;;;;;5103660;28;20235;-74
2021/04/12 11:18:52;;;;;;;2.80;2.60;;;9.40;1.00;;;;;;5104197;27;20210;-73
2021/04/12 11:21:42;;;;;;;5.17;2.60;;;8.70;99.90;;;;;;5097830;28;20247;-76
2021/04/12 11:24:32;;;;;;;3.37;3.00;;;7.90;1.00;;;;;;5104794;28;20289;-75
2021/04/12 11:27:26;;;;;;;2.60;2.40;;;8.20;99.90;;;;;;5087658;28;20202;-74
2021/04/12 11:30:10;;;;;;;2.83;2.33;;;8.70;99.90;;;;;;5107303;27;20273;-74
2021/04/12 11:32:51;;;;;;;1.80;1.70;;;8.60;99.90;;;;;;5100895;28;20198;-73
2021/04/12 11:35:40;;;;;;;1.97;1.80;;;9.60;53.90;;;;;;5104158;27;20194;-74
2021/04/12 11:38:21;;;;;;;2.43;2.13;;;9.10;1.00;;;;;;5104936;28;20258;-75
2021/04/12 11:41:05;;;;;;;2.23;1.70;;;9.00;78.50;;;;;;5109349;27;20226;-76
2021/04/12 11:43:36;;;;;;;1.93;1.73;;;9.00;1.00;;;;;;5108471;28;20213;-74
2021/04/12 11:46:15;;;;;;;1.40;1.30;;;9.10;1.00;;;;;;5090084;28;20203;-74
2021/04/12 11:49:14;;;;;;;1.50;1.10;;;9.40;1.00;;;;;;5083665;28;20255;-74
2021/04/12 11:51:54;;;;;;;1.23;1.10;;;10.00;38.70;;;;;;5081580;27;20255;-75
2021/04/12 11:54:40;;;;;;;1.03;0.93;;;10.50;1.00;;;;;;5088397;28;20226;-75
2021/04/12 11:57:35;;;;;;;3.40;1.00;;;10.00;1.00;;;;;;5108452;27;20242;-76
2021/04/12 12:00:18;;;;;;;4.40;0.97;;;9.80;99.90;;;;;;5100019;27;20528;-76
2021/04/12 12:03:06;;;;;;;0.90;0.80;;;10.20;99.90;;;;;;5108731;28;20233;-74
2021/04/12 12:05:37;;;;;;;1.80;0.70;;;10.90;1.00;;;;;;5096356;28;20208;-74
2021/04/12 12:08:06;;;;;;;1.33;0.97;;;11.00;1.00;;;;;;5104497;28;20568;-74
2021/04/12 12:10:51;;;;;;;4.93;1.30;;;11.40;99.90;;;;;;5090758;28;20325;-76
2021/04/12 12:13:41;;;;;;;1.67;0.90;;;10.40;1.00;;;;;;5082656;28;20251;-73
2021/04/12 12:16:27;;;;;;;1.97;0.90;;;10.40;99.90;;;;;;5102888;27;20248;-73
2021/04/12 12:19:02;;;;;;;1.83;1.10;;;10.50;99.90;;;;;;5102185;28;20278;-74
2021/04/12 12:21:45;;;;;;;1.60;1.00;;;9.90;1.00;;;;;;5098597;28;20199;-75
2021/04/12 12:24:28;;;;;;;2.53;0.80;;;9.70;1.00;;;;;;5105909;28;20256;-73
2021/04/12 12:27:07;;;;;;;1.07;0.97;;;9.50;1.00;;;;;;5086214;28;20248;-73
2021/04/12 12:29:48;;;;;;;4.17;1.27;;;9.10;1.00;;;;;;5110989;28;20776;-76
2021/04/12 12:32:15;;;;;;;2.40;1.27;;;9.50;1.00;;;;;;5098654;28;20229;-74
2021/04/12 12:34:54;;;;;;;1.23;1.03;;;9.40;1.00;;;;;;5103885;28;20203;-75
2021/04/12 12:38:06;;;;;;;2.47;1.10;;;10.10;99.90;;;;;;5104329;28;20214;-76
2021/04/12 12:40:41;;;;;;;2.67;1.10;;;10.30;1.00;;;;;;5020562;28;20962;-75
2021/04/12 12:43:15;;;;;;;2.00;1.30;;;9.50;1.00;;;;;;5014123;28;21234;-75
2021/04/12 12:45:42;;;;;;;2.07;1.00;;;9.60;99.90;;;;;;5080331;28;20703;-73
2021/04/12 12:48:27;;;;;;;5.17;1.60;;;9.90;1.00;;;;;;5088767;28;20194;-73
2021/04/12 12:51:11;;;;;;;2.90;1.60;;;10.50;1.00;;;;;;5086785;28;20232;-74
2021/04/12 12:53:43;;;;;;;1.20;1.10;;;10.60;1.00;;;;;;5088195;28;20218;-73
2021/04/12 12:56:12;;;;;;;2.57;1.60;;;10.60;99.90;;;;;;5090700;28;20205;-73
2021/04/12 12:58:50;;;;;;;1.93;1.37;;;10.80;99.90;;;;;;5092988;28;20197;-74
2021/04/12 13:01:27;;;;;;;1.70;1.40;;;10.40;99.90;;;;;;5089374;28;20543;-73
2021/04/12 13:03:55;;;;;;;4.47;1.50;;;10.80;1.00;;;;;;5088322;28;20292;-73
2021/04/12 13:06:28;;;;;;;2.03;1.30;;;11.10;1.00;;;;;;5095525;28;20211;-74
2021/04/12 13:08:56;;;;;;;1.97;1.23;;;10.90;1.00;;;;;;5094579;28;20218;-74
2021/04/12 13:11:42;;;;;;;1.37;1.10;;;10.60;1.00;;;;;;5093081;27;20264;-73
2021/04/12 13:14:28;;;;;;;1.90;1.20;;;10.80;1.00;;;;;;5089162;28;20212;-73
2021/04/12 13:16:56;;;;;;;1.30;1.20;;;10.80;1.00;;;;;;5106692;28;20220;-73
2021/04/12 13:19:23;;;;;;;1.77;1.30;;;10.30;1.00;;;;;;5105925;28;20190;-75
2021/04/12 13:21:58;;;;;;;0.70;0.70;;;10.50;99.90;;;;;;5108015;28;20200;-73
2021/04/12 13:24:36;;;;;;;4.03;1.20;;;10.40;1.00;;;;;;5109566;27;20205;-73
2021/04/12 13:27:24;;;;;;;1.23;1.03;;;10.90;1.00;;;;;;5090782;28;20605;-72
2021/04/12 13:29:56;;;;;;;2.47;1.70;;;11.60;99.90;;;;;;5086473;28;20235;-73
2021/04/12 13:32:27;;;;;;;1.63;1.53;;;11.30;99.90;;;;;;5069460;28;20298;-72
2021/04/12 13:35:11;;;;;;;1.93;1.67;;;11.30;1.00;;;;;;5071527;28;20658;-72
2021/04/12 13:37:43;;;;;;;1.73;1.60;;;11.60;1.00;;;;;;5067734;28;20258;-73
2021/04/12 13:40:36;;;;;;;1.67;1.00;;;11.60;1.00;;;;;;5087717;28;20283;-74
2021/04/12 13:43:06;;;;;;;1.70;1.60;;;10.50;1.00;;;;;;5088163;28;20239;-72
2021/04/12 13:45:42;;;;;;;4.17;1.30;;;10.50;1.00;;;;;;5088339;28;20653;-72
2021/04/12 13:48:29;;;;;;;4.30;1.40;;;10.30;99.90;;;;;;5086043;28;20201;-76
2021/04/12 13:51:08;;;;;;;2.80;2.03;;;10.60;99.90;;;;;;5083114;28;20228;-74
2021/04/12 13:53:45;;;;;;;3.27;2.20;;;9.80;1.00;;;;;;5084584;28;20672;-73
2021/04/12 13:56:13;;;;;;;1.97;1.70;;;10.10;1.00;;;;;;5087014;28;20194;-73
2021/04/12 13:58:48;;;;;;;2.37;1.67;;;9.50;98.20;;;;;;5088088;28;20603;-75
2021/04/12 14:01:22;;;;;;;2.20;1.20;;;9.80;99.90;;;;;;5086061;28;20248;-73
2021/04/12 14:04:14;;;;;;;2.13;1.40;;;9.90;99.90;;;;;;5085017;28;20537;-73
2021/04/12 14:06:45;;;;;;;2.47;1.33;;;9.60;99.90;;;;;;5068059;28;20472;-74
2021/04/12 14:09:21;;;;;;;1.10;1.00;;;9.30;99.90;;;;;;5072469;28;20198;-74
2021/04/12 14:12:01;;;;;;;1.20;1.10;;;9.10;1.00;;;;;;5087059;28;20259;-73
2021/04/12 14:14:55;;;;;;;1.47;1.37;;;9.10;1.00;;;;;;5067353;28;20273;-73
2021/04/12 14:17:26;;;;;;;1.47;1.37;;;9.90;1.00;;;;;;5082536;28;20205;-74
2021/04/12 14:20:19;;;;;;;2.00;1.57;;;10.50;99.90;;;;;;5080866;28;20199;-74
2021/04/12 14:22:50;;;;;;;2.20;2.00;;;10.60;1.00;;;;;;5079784;28;20282;-74
2021/04/12 14:25:34;;;;;;;2.10;1.60;;;9.50;99.90;;;;;;5083690;28;20194;-73
2021/04/12 14:28:06;;;;;;;3.83;1.67;;;9.60;43.70;;;;;;5080909;28;20210;-74
2021/04/12 14:30:40;;;;;;;2.13;1.43;;;9.00;99.90;;;;;;5093567;28;20264;-75
2021/04/12 14:33:07;;;;;;;5.00;2.07;;;9.40;1.00;;;;;;5103407;28;20206;-75
2021/04/12 14:35:40;;;;;;;1.90;1.73;;;9.60;1.00;;;;;;5091837;28;20194;-74
2021/04/12 14:38:09;;;;;;;4.13;2.17;;;9.40;1.00;;;;;;5102997;28;20201;-74
2021/04/12 14:40:39;;;;;;;4.00;2.47;;;8.90;1.00;;;;;;5105952;28;20251;-75
2021/04/12 14:43:14;;;;;;;4.37;2.33;;;8.30;1.00;;;;;;5104715;28;20280;-75